sensor_id;sensor_type;location;lat;lon;timestamp;P1;durP1;ratioP1;P2;durP2;ratioP2
80233;SDS011;69712;42.142;24.766;2023-11-19T00:02:18;2.47;;;2.05;;
80233;SDS011;69712;42.142;24.766;2023-11-19T00:04:44;2.97;;;2.20;;
80233;SDS011;69712;42.142;24.766;2023-11-19T00:07:11;2.90;;;2.25;;
80233;SDS011;69712;42.142;24.766;2023-11-19T00:09:38;3.17;;;2.10;;
80233;SDS011;69712;42.142;24.766;2023-11-19T00:12:04;3.22;;;2.50;;
80233;SDS011;69712;42.142;24.766;2023-11-19T00:14:46;2.60;;;2.20;;
80233;SDS011;69712;42.142;24.766;2023-11-19T00:17:12;2.47;;;2.10;;
80233;SDS011;69712;42.142;24.766;2023-11-19T00:19:38;2.78;;;2.30;;
80233;SDS011;69712;42.142;24.766;2023-11-19T00:22:03;2.38;;;2.10;;
80233;SDS011;69712;42.142;24.766;2023-11-19T00:24:29;2.83;;;2.13;;
80233;SDS011;69712;42.142;24.766;2023-11-19T00:26:55;2.70;;;2.20;;
80233;SDS011;69712;42.142;24.766;2023-11-19T00:29:21;3.22;;;2.25;;
80233;SDS011;69712;42.142;24.766;2023-11-19T00:31:47;2.58;;;2.28;;
80233;SDS011;69712;42.142;24.766;2023-11-19T00:34:13;3.10;;;2.20;;
80233;SDS011;69712;42.142;24.766;2023-11-19T00:36:38;2.70;;;2.30;;
80233;SDS011;69712;42.142;24.766;2023-11-19T00:39:04;2.28;;;2.00;;
80233;SDS011;69712;42.142;24.766;2023-11-19T00:41:31;2.28;;;2.00;;
80233;SDS011;69712;42.142;24.766;2023-11-19T00:43:56;2.60;;;2.20;;
80233;SDS011;69712;42.142;24.766;2023-11-19T00:46:22;2.65;;;2.05;;
80233;SDS011;69712;42.142;24.766;2023-11-19T00:48:48;2.75;;;2.28;;
80233;SDS011;69712;42.142;24.766;2023-11-19T00:51:14;1.95;;;1.85;;
80233;SDS011;69712;42.142;24.766;2023-11-19T00:53:39;2.40;;;2.20;;
80233;SDS011;69712;42.142;24.766;2023-11-19T00:56:05;2.30;;;2.10;;
80233;SDS011;69712;42.142;24.766;2023-11-19T00:58:31;2.42;;;2.20;;
80233;SDS011;69712;42.142;24.766;2023-11-19T01:00:57;2.05;;;1.85;;
80233;SDS011;69712;42.142;24.766;2023-11-19T01:03:23;2.80;;;2.17;;
80233;SDS011;69712;42.142;24.766;2023-11-19T01:06:07;2.20;;;1.90;;
80233;SDS011;69712;42.142;24.766;2023-11-19T01:08:33;2.47;;;2.17;;
80233;SDS011;69712;42.142;24.766;2023-11-19T01:11:00;2.20;;;1.92;;
80233;SDS011;69712;42.142;24.766;2023-11-19T01:13:27;2.25;;;2.00;;
80233;SDS011;69712;42.142;24.766;2023-11-19T01:15:53;2.58;;;2.22;;
80233;SDS011;69712;42.142;24.766;2023-11-19T01:18:21;2.40;;;2.20;;
80233;SDS011;69712;42.142;24.766;2023-11-19T01:20:47;2.25;;;2.10;;
80233;SDS011;69712;42.142;24.766;2023-11-19T01:23:12;2.38;;;2.13;;
80233;SDS011;69712;42.142;24.766;2023-11-19T01:25:38;3.33;;;2.28;;
80233;SDS011;69712;42.142;24.766;2023-11-19T01:28:04;3.72;;;2.13;;
80233;SDS011;69712;42.142;24.766;2023-11-19T01:30:30;3.17;;;2.25;;
80233;SDS011;69712;42.142;24.766;2023-11-19T01:32:55;2.50;;;2.22;;
80233;SDS011;69712;42.142;24.766;2023-11-19T01:35:21;2.58;;;2.33;;
80233;SDS011;69712;42.142;24.766;2023-11-19T01:37:48;2.80;;;2.33;;
80233;SDS011;69712;42.142;24.766;2023-11-19T01:40:19;2.35;;;2.13;;
80233;SDS011;69712;42.142;24.766;2023-11-19T01:42:45;2.72;;;2.22;;
80233;SDS011;69712;42.142;24.766;2023-11-19T01:45:11;2.30;;;2.10;;
80233;SDS011;69712;42.142;24.766;2023-11-19T01:47:53;2.72;;;2.20;;
80233;SDS011;69712;42.142;24.766;2023-11-19T01:50:19;3.00;;;2.40;;
80233;SDS011;69712;42.142;24.766;2023-11-19T01:52:45;2.60;;;2.40;;
80233;SDS011;69712;42.142;24.766;2023-11-19T01:55:11;3.03;;;2.30;;
80233;SDS011;69712;42.142;24.766;2023-11-19T01:57:38;2.45;;;2.25;;
80233;SDS011;69712;42.142;24.766;2023-11-19T02:00:06;2.60;;;2.40;;
80233;SDS011;69712;42.142;24.766;2023-11-19T02:02:36;2.60;;;2.38;;
80233;SDS011;69712;42.142;24.766;2023-11-19T02:05:04;2.92;;;2.40;;
80233;SDS011;69712;42.142;24.766;2023-11-19T02:07:31;3.67;;;2.47;;
80233;SDS011;69712;42.142;24.766;2023-11-19T02:09:57;2.33;;;2.13;;
80233;SDS011;69712;42.142;24.766;2023-11-19T02:12:28;2.50;;;2.28;;
80233;SDS011;69712;42.142;24.766;2023-11-19T02:14:54;3.10;;;2.60;;
80233;SDS011;69712;42.142;24.766;2023-11-19T02:17:26;3.25;;;2.45;;
80233;SDS011;69712;42.142;24.766;2023-11-19T02:19:53;2.80;;;2.50;;
80233;SDS011;69712;42.142;24.766;2023-11-19T02:22:19;3.08;;;2.58;;
80233;SDS011;69712;42.142;24.766;2023-11-19T02:24:45;2.70;;;2.50;;
80233;SDS011;69712;42.142;24.766;2023-11-19T02:27:16;3.03;;;2.35;;
80233;SDS011;69712;42.142;24.766;2023-11-19T02:29:56;3.03;;;2.58;;
80233;SDS011;69712;42.142;24.766;2023-11-19T02:32:23;2.50;;;2.28;;
80233;SDS011;69712;42.142;24.766;2023-11-19T02:34:48;4.55;;;2.50;;
80233;SDS011;69712;42.142;24.766;2023-11-19T02:37:14;3.25;;;2.30;;
80233;SDS011;69712;42.142;24.766;2023-11-19T02:39:40;2.60;;;2.40;;
80233;SDS011;69712;42.142;24.766;2023-11-19T02:42:07;3.33;;;2.40;;
80233;SDS011;69712;42.142;24.766;2023-11-19T02:44:33;3.80;;;2.60;;
80233;SDS011;69712;42.142;24.766;2023-11-19T02:46:59;2.55;;;2.35;;
80233;SDS011;69712;42.142;24.766;2023-11-19T02:49:25;2.92;;;2.63;;
80233;SDS011;69712;42.142;24.766;2023-11-19T02:51:51;2.58;;;2.38;;
80233;SDS011;69712;42.142;24.766;2023-11-19T02:54:16;3.05;;;2.67;;
80233;SDS011;69712;42.142;24.766;2023-11-19T02:56:43;3.85;;;2.70;;
80233;SDS011;69712;42.142;24.766;2023-11-19T02:59:08;3.88;;;2.35;;
80233;SDS011;69712;42.142;24.766;2023-11-19T03:01:43;2.80;;;2.50;;
80233;SDS011;69712;42.142;24.766;2023-11-19T03:04:15;2.88;;;2.58;;
80233;SDS011;69712;42.142;24.766;2023-11-19T03:06:42;3.65;;;2.50;;
80233;SDS011;69712;42.142;24.766;2023-11-19T03:09:07;2.80;;;2.60;;
80233;SDS011;69712;42.142;24.766;2023-11-19T03:11:35;3.20;;;2.70;;
80233;SDS011;69712;42.142;24.766;2023-11-19T03:14:01;3.50;;;2.85;;
80233;SDS011;69712;42.142;24.766;2023-11-19T03:16:28;4.47;;;2.53;;
80233;SDS011;69712;42.142;24.766;2023-11-19T03:18:54;2.90;;;2.60;;
80233;SDS011;69712;42.142;24.766;2023-11-19T03:21:26;3.08;;;2.65;;
80233;SDS011;69712;42.142;24.766;2023-11-19T03:23:56;4.60;;;2.60;;
80233;SDS011;69712;42.142;24.766;2023-11-19T03:26:25;3.92;;;2.80;;
80233;SDS011;69712;42.142;24.766;2023-11-19T03:28:54;3.22;;;2.85;;
80233;SDS011;69712;42.142;24.766;2023-11-19T03:31:22;3.80;;;3.28;;
80233;SDS011;69712;42.142;24.766;2023-11-19T03:33:48;3.85;;;2.88;;
80233;SDS011;69712;42.142;24.766;2023-11-19T03:36:13;3.10;;;2.80;;
80233;SDS011;69712;42.142;24.766;2023-11-19T03:38:39;3.70;;;3.25;;
80233;SDS011;69712;42.142;24.766;2023-11-19T03:41:16;3.95;;;3.20;;
80233;SDS011;69712;42.142;24.766;2023-11-19T03:43:42;3.35;;;3.05;;
80233;SDS011;69712;42.142;24.766;2023-11-19T03:46:20;3.25;;;2.92;;
80233;SDS011;69712;42.142;24.766;2023-11-19T03:48:49;3.92;;;3.22;;
80233;SDS011;69712;42.142;24.766;2023-11-19T03:51:15;3.88;;;3.15;;
80233;SDS011;69712;42.142;24.766;2023-11-19T03:53:43;3.60;;;3.30;;
80233;SDS011;69712;42.142;24.766;2023-11-19T03:56:09;3.90;;;3.55;;
80233;SDS011;69712;42.142;24.766;2023-11-19T03:58:36;5.13;;;3.20;;
80233;SDS011;69712;42.142;24.766;2023-11-19T04:01:03;3.60;;;3.30;;
80233;SDS011;69712;42.142;24.766;2023-11-19T04:03:29;3.60;;;3.10;;
80233;SDS011;69712;42.142;24.766;2023-11-19T04:05:55;4.80;;;3.70;;
80233;SDS011;69712;42.142;24.766;2023-11-19T04:08:21;4.22;;;3.35;;
80233;SDS011;69712;42.142;24.766;2023-11-19T04:10:47;3.88;;;3.28;;
80233;SDS011;69712;42.142;24.766;2023-11-19T04:13:13;3.63;;;3.20;;
80233;SDS011;69712;42.142;24.766;2023-11-19T04:15:39;3.42;;;3.13;;
80233;SDS011;69712;42.142;24.766;2023-11-19T04:18:04;3.40;;;3.00;;
80233;SDS011;69712;42.142;24.766;2023-11-19T04:20:30;3.25;;;2.95;;
80233;SDS011;69712;42.142;24.766;2023-11-19T04:22:56;2.83;;;2.58;;
80233;SDS011;69712;42.142;24.766;2023-11-19T04:25:22;4.95;;;3.25;;
80233;SDS011;69712;42.142;24.766;2023-11-19T04:27:51;4.85;;;2.53;;
80233;SDS011;69712;42.142;24.766;2023-11-19T04:30:17;4.45;;;2.80;;
80233;SDS011;69712;42.142;24.766;2023-11-19T04:32:43;3.30;;;3.00;;
80233;SDS011;69712;42.142;24.766;2023-11-19T04:35:09;3.78;;;2.80;;
80233;SDS011;69712;42.142;24.766;2023-11-19T04:37:35;3.75;;;3.00;;
80233;SDS011;69712;42.142;24.766;2023-11-19T04:40:02;3.25;;;2.90;;
80233;SDS011;69712;42.142;24.766;2023-11-19T04:42:28;3.00;;;2.70;;
80233;SDS011;69712;42.142;24.766;2023-11-19T04:44:54;3.45;;;3.10;;
80233;SDS011;69712;42.142;24.766;2023-11-19T04:47:20;4.60;;;3.13;;
80233;SDS011;69712;42.142;24.766;2023-11-19T04:49:46;4.55;;;3.70;;
80233;SDS011;69712;42.142;24.766;2023-11-19T04:52:12;5.57;;;3.65;;
80233;SDS011;69712;42.142;24.766;2023-11-19T04:54:41;4.47;;;3.55;;
80233;SDS011;69712;42.142;24.766;2023-11-19T04:57:08;4.40;;;3.63;;
80233;SDS011;69712;42.142;24.766;2023-11-19T04:59:36;4.75;;;3.25;;
80233;SDS011;69712;42.142;24.766;2023-11-19T05:02:02;4.95;;;3.53;;
80233;SDS011;69712;42.142;24.766;2023-11-19T05:04:29;4.22;;;3.50;;
80233;SDS011;69712;42.142;24.766;2023-11-19T05:06:55;4.05;;;3.28;;
80233;SDS011;69712;42.142;24.766;2023-11-19T05:09:20;4.05;;;3.53;;
80233;SDS011;69712;42.142;24.766;2023-11-19T05:11:46;3.78;;;3.13;;
80233;SDS011;69712;42.142;24.766;2023-11-19T05:14:13;4.38;;;3.33;;
80233;SDS011;69712;42.142;24.766;2023-11-19T05:16:39;4.22;;;3.55;;
80233;SDS011;69712;42.142;24.766;2023-11-19T05:19:05;3.47;;;2.95;;
80233;SDS011;69712;42.142;24.766;2023-11-19T05:21:31;3.75;;;3.40;;
80233;SDS011;69712;42.142;24.766;2023-11-19T05:23:57;3.85;;;3.30;;
80233;SDS011;69712;42.142;24.766;2023-11-19T05:26:23;4.65;;;3.35;;
80233;SDS011;69712;42.142;24.766;2023-11-19T05:28:49;4.20;;;3.55;;
80233;SDS011;69712;42.142;24.766;2023-11-19T05:31:16;3.55;;;3.22;;
80233;SDS011;69712;42.142;24.766;2023-11-19T05:33:43;3.95;;;3.50;;
80233;SDS011;69712;42.142;24.766;2023-11-19T05:36:11;5.93;;;3.88;;
80233;SDS011;69712;42.142;24.766;2023-11-19T05:38:37;5.38;;;3.95;;
80233;SDS011;69712;42.142;24.766;2023-11-19T05:41:04;6.88;;;3.45;;
80233;SDS011;69712;42.142;24.766;2023-11-19T05:43:30;4.57;;;3.50;;
80233;SDS011;69712;42.142;24.766;2023-11-19T05:45:57;4.65;;;3.80;;
80233;SDS011;69712;42.142;24.766;2023-11-19T05:48:22;3.88;;;3.47;;
80233;SDS011;69712;42.142;24.766;2023-11-19T05:50:49;3.85;;;3.05;;
80233;SDS011;69712;42.142;24.766;2023-11-19T05:53:15;3.45;;;3.15;;
80233;SDS011;69712;42.142;24.766;2023-11-19T05:55:41;3.92;;;3.13;;
80233;SDS011;69712;42.142;24.766;2023-11-19T05:58:33;6.57;;;4.40;;
80233;SDS011;69712;42.142;24.766;2023-11-19T06:00:58;4.80;;;3.38;;
80233;SDS011;69712;42.142;24.766;2023-11-19T06:03:28;4.50;;;3.45;;
80233;SDS011;69712;42.142;24.766;2023-11-19T06:05:54;4.20;;;3.30;;
80233;SDS011;69712;42.142;24.766;2023-11-19T06:08:19;5.07;;;3.58;;
80233;SDS011;69712;42.142;24.766;2023-11-19T06:10:46;4.82;;;3.60;;
80233;SDS011;69712;42.142;24.766;2023-11-19T06:13:12;4.55;;;3.40;;
80233;SDS011;69712;42.142;24.766;2023-11-19T06:15:41;4.00;;;3.45;;
80233;SDS011;69712;42.142;24.766;2023-11-19T06:18:07;5.00;;;3.45;;
80233;SDS011;69712;42.142;24.766;2023-11-19T06:20:33;4.78;;;4.00;;
80233;SDS011;69712;42.142;24.766;2023-11-19T06:23:00;2.88;;;2.65;;
80233;SDS011;69712;42.142;24.766;2023-11-19T06:25:26;5.70;;;3.28;;
80233;SDS011;69712;42.142;24.766;2023-11-19T06:27:52;4.00;;;3.10;;
80233;SDS011;69712;42.142;24.766;2023-11-19T06:30:18;3.88;;;3.13;;
80233;SDS011;69712;42.142;24.766;2023-11-19T06:32:45;4.05;;;3.00;;
80233;SDS011;69712;42.142;24.766;2023-11-19T06:35:11;5.50;;;3.28;;
80233;SDS011;69712;42.142;24.766;2023-11-19T06:37:39;4.78;;;2.90;;
80233;SDS011;69712;42.142;24.766;2023-11-19T06:40:05;3.25;;;2.90;;
80233;SDS011;69712;42.142;24.766;2023-11-19T06:42:32;3.67;;;3.10;;
80233;SDS011;69712;42.142;24.766;2023-11-19T06:44:58;6.22;;;3.92;;
80233;SDS011;69712;42.142;24.766;2023-11-19T06:47:27;4.20;;;3.30;;
80233;SDS011;69712;42.142;24.766;2023-11-19T06:49:53;4.55;;;3.40;;
80233;SDS011;69712;42.142;24.766;2023-11-19T06:52:19;5.18;;;3.50;;
80233;SDS011;69712;42.142;24.766;2023-11-19T06:54:45;3.75;;;3.17;;
80233;SDS011;69712;42.142;24.766;2023-11-19T06:57:11;3.97;;;3.28;;
80233;SDS011;69712;42.142;24.766;2023-11-19T06:59:37;3.97;;;3.20;;
80233;SDS011;69712;42.142;24.766;2023-11-19T07:02:04;3.97;;;3.38;;
80233;SDS011;69712;42.142;24.766;2023-11-19T07:04:30;9.32;;;5.15;;
80233;SDS011;69712;42.142;24.766;2023-11-19T07:06:56;4.38;;;3.38;;
80233;SDS011;69712;42.142;24.766;2023-11-19T07:09:22;3.83;;;3.40;;
80233;SDS011;69712;42.142;24.766;2023-11-19T07:11:48;6.43;;;3.80;;
80233;SDS011;69712;42.142;24.766;2023-11-19T07:14:16;4.85;;;3.88;;
80233;SDS011;69712;42.142;24.766;2023-11-19T07:16:43;4.35;;;3.42;;
80233;SDS011;69712;42.142;24.766;2023-11-19T07:19:09;5.97;;;3.60;;
80233;SDS011;69712;42.142;24.766;2023-11-19T07:21:35;5.45;;;3.30;;
80233;SDS011;69712;42.142;24.766;2023-11-19T07:24:04;4.28;;;3.38;;
80233;SDS011;69712;42.142;24.766;2023-11-19T07:26:31;4.00;;;3.38;;
80233;SDS011;69712;42.142;24.766;2023-11-19T07:28:56;5.40;;;3.45;;
80233;SDS011;69712;42.142;24.766;2023-11-19T07:31:23;4.60;;;3.60;;
80233;SDS011;69712;42.142;24.766;2023-11-19T07:33:49;4.38;;;3.50;;
80233;SDS011;69712;42.142;24.766;2023-11-19T07:36:15;6.22;;;3.50;;
80233;SDS011;69712;42.142;24.766;2023-11-19T07:38:41;5.47;;;3.20;;
80233;SDS011;69712;42.142;24.766;2023-11-19T07:41:07;3.30;;;3.00;;
80233;SDS011;69712;42.142;24.766;2023-11-19T07:43:41;3.90;;;3.10;;
80233;SDS011;69712;42.142;24.766;2023-11-19T07:46:13;4.00;;;2.92;;
80233;SDS011;69712;42.142;24.766;2023-11-19T07:48:39;4.18;;;3.17;;
80233;SDS011;69712;42.142;24.766;2023-11-19T07:51:05;3.40;;;3.03;;
80233;SDS011;69712;42.142;24.766;2023-11-19T07:53:31;2.83;;;2.53;;
80233;SDS011;69712;42.142;24.766;2023-11-19T07:55:58;3.17;;;2.88;;
80233;SDS011;69712;42.142;24.766;2023-11-19T07:58:26;3.58;;;2.72;;
80233;SDS011;69712;42.142;24.766;2023-11-19T08:00:52;5.47;;;2.80;;
80233;SDS011;69712;42.142;24.766;2023-11-19T08:03:18;2.90;;;2.60;;
80233;SDS011;69712;42.142;24.766;2023-11-19T08:05:49;3.53;;;2.70;;
80233;SDS011;69712;42.142;24.766;2023-11-19T08:08:16;4.15;;;2.80;;
80233;SDS011;69712;42.142;24.766;2023-11-19T08:10:42;3.45;;;2.80;;
80233;SDS011;69712;42.142;24.766;2023-11-19T08:13:09;3.35;;;2.90;;
80233;SDS011;69712;42.142;24.766;2023-11-19T08:15:36;3.97;;;2.88;;
80233;SDS011;69712;42.142;24.766;2023-11-19T08:18:02;4.55;;;2.80;;
80233;SDS011;69712;42.142;24.766;2023-11-19T08:20:27;3.97;;;2.90;;
80233;SDS011;69712;42.142;24.766;2023-11-19T08:22:53;3.10;;;2.60;;
80233;SDS011;69712;42.142;24.766;2023-11-19T08:25:19;3.38;;;2.70;;
80233;SDS011;69712;42.142;24.766;2023-11-19T08:27:45;3.13;;;2.70;;
80233;SDS011;69712;42.142;24.766;2023-11-19T08:30:11;4.93;;;2.28;;
80233;SDS011;69712;42.142;24.766;2023-11-19T08:32:38;3.35;;;2.65;;
80233;SDS011;69712;42.142;24.766;2023-11-19T08:35:04;4.22;;;2.70;;
80233;SDS011;69712;42.142;24.766;2023-11-19T08:37:31;2.78;;;2.47;;
80233;SDS011;69712;42.142;24.766;2023-11-19T08:39:56;3.33;;;2.90;;
80233;SDS011;69712;42.142;24.766;2023-11-19T08:42:23;5.43;;;2.70;;
80233;SDS011;69712;42.142;24.766;2023-11-19T08:44:49;3.67;;;2.70;;
80233;SDS011;69712;42.142;24.766;2023-11-19T08:47:16;4.10;;;2.53;;
80233;SDS011;69712;42.142;24.766;2023-11-19T08:49:45;3.65;;;2.55;;
80233;SDS011;69712;42.142;24.766;2023-11-19T08:52:11;4.38;;;2.90;;
80233;SDS011;69712;42.142;24.766;2023-11-19T08:54:37;3.28;;;2.72;;
80233;SDS011;69712;42.142;24.766;2023-11-19T08:57:03;5.13;;;2.50;;
80233;SDS011;69712;42.142;24.766;2023-11-19T08:59:29;4.28;;;2.90;;
80233;SDS011;69712;42.142;24.766;2023-11-19T09:01:55;4.30;;;3.47;;
80233;SDS011;69712;42.142;24.766;2023-11-19T09:04:21;3.35;;;3.03;;
80233;SDS011;69712;42.142;24.766;2023-11-19T09:06:49;3.72;;;2.80;;
80233;SDS011;69712;42.142;24.766;2023-11-19T09:09:15;4.63;;;3.08;;
80233;SDS011;69712;42.142;24.766;2023-11-19T09:11:41;3.65;;;2.80;;
80233;SDS011;69712;42.142;24.766;2023-11-19T09:14:07;4.32;;;2.80;;
80233;SDS011;69712;42.142;24.766;2023-11-19T09:16:34;6.40;;;2.75;;
80233;SDS011;69712;42.142;24.766;2023-11-19T09:19:11;4.07;;;3.10;;
80233;SDS011;69712;42.142;24.766;2023-11-19T09:21:38;4.38;;;2.60;;
80233;SDS011;69712;42.142;24.766;2023-11-19T09:24:04;3.30;;;3.00;;
80233;SDS011;69712;42.142;24.766;2023-11-19T09:26:30;4.97;;;2.70;;
80233;SDS011;69712;42.142;24.766;2023-11-19T09:28:56;4.03;;;3.00;;
80233;SDS011;69712;42.142;24.766;2023-11-19T09:31:22;4.78;;;2.90;;
80233;SDS011;69712;42.142;24.766;2023-11-19T09:33:48;3.42;;;2.67;;
80233;SDS011;69712;42.142;24.766;2023-11-19T09:36:14;3.90;;;2.70;;
80233;SDS011;69712;42.142;24.766;2023-11-19T09:38:41;3.92;;;2.90;;
80233;SDS011;69712;42.142;24.766;2023-11-19T09:41:09;2.85;;;2.55;;
80233;SDS011;69712;42.142;24.766;2023-11-19T09:43:37;3.17;;;2.88;;
80233;SDS011;69712;42.142;24.766;2023-11-19T09:46:04;3.85;;;3.22;;
80233;SDS011;69712;42.142;24.766;2023-11-19T09:48:35;6.60;;;3.13;;
80233;SDS011;69712;42.142;24.766;2023-11-19T09:51:02;7.53;;;2.90;;
80233;SDS011;69712;42.142;24.766;2023-11-19T09:53:29;6.10;;;2.83;;
80233;SDS011;69712;42.142;24.766;2023-11-19T09:55:55;3.10;;;2.72;;
80233;SDS011;69712;42.142;24.766;2023-11-19T09:58:22;3.17;;;2.80;;
80233;SDS011;69712;42.142;24.766;2023-11-19T10:00:48;2.97;;;2.75;;
80233;SDS011;69712;42.142;24.766;2023-11-19T10:03:15;3.92;;;3.00;;
80233;SDS011;69712;42.142;24.766;2023-11-19T10:05:41;4.57;;;2.70;;
80233;SDS011;69712;42.142;24.766;2023-11-19T10:08:07;3.17;;;2.88;;
80233;SDS011;69712;42.142;24.766;2023-11-19T10:10:36;4.07;;;2.95;;
80233;SDS011;69712;42.142;24.766;2023-11-19T10:13:02;3.42;;;3.10;;
80233;SDS011;69712;42.142;24.766;2023-11-19T10:15:28;4.18;;;3.08;;
80233;SDS011;69712;42.142;24.766;2023-11-19T10:18:00;4.55;;;3.22;;
80233;SDS011;69712;42.142;24.766;2023-11-19T10:20:26;3.58;;;3.28;;
80233;SDS011;69712;42.142;24.766;2023-11-19T10:22:52;3.08;;;2.78;;
80233;SDS011;69712;42.142;24.766;2023-11-19T10:25:26;4.20;;;3.22;;
80233;SDS011;69712;42.142;24.766;2023-11-19T10:27:54;3.50;;;3.05;;
80233;SDS011;69712;42.142;24.766;2023-11-19T10:30:21;4.55;;;3.10;;
80233;SDS011;69712;42.142;24.766;2023-11-19T10:33:02;6.90;;;3.47;;
80233;SDS011;69712;42.142;24.766;2023-11-19T10:35:28;3.80;;;3.40;;
80233;SDS011;69712;42.142;24.766;2023-11-19T10:37:54;4.72;;;3.85;;
80233;SDS011;69712;42.142;24.766;2023-11-19T10:40:19;3.30;;;3.00;;
80233;SDS011;69712;42.142;24.766;2023-11-19T10:42:45;3.53;;;3.22;;
80233;SDS011;69712;42.142;24.766;2023-11-19T10:45:21;3.58;;;3.20;;
80233;SDS011;69712;42.142;24.766;2023-11-19T10:47:50;7.68;;;5.60;;
80233;SDS011;69712;42.142;24.766;2023-11-19T10:50:19;7.53;;;5.57;;
80233;SDS011;69712;42.142;24.766;2023-11-19T10:52:45;6.45;;;4.57;;
80233;SDS011;69712;42.142;24.766;2023-11-19T10:55:13;6.30;;;4.00;;
80233;SDS011;69712;42.142;24.766;2023-11-19T10:57:44;6.70;;;4.88;;
80233;SDS011;69712;42.142;24.766;2023-11-19T11:00:13;5.95;;;4.10;;
80233;SDS011;69712;42.142;24.766;2023-11-19T11:02:45;11.27;;;5.82;;
80233;SDS011;69712;42.142;24.766;2023-11-19T11:05:15;4.93;;;3.50;;
80233;SDS011;69712;42.142;24.766;2023-11-19T11:07:45;6.75;;;4.20;;
80233;SDS011;69712;42.142;24.766;2023-11-19T11:10:11;7.75;;;5.47;;
80233;SDS011;69712;42.142;24.766;2023-11-19T11:12:40;4.63;;;3.85;;
80233;SDS011;69712;42.142;24.766;2023-11-19T11:15:08;6.45;;;4.70;;
80233;SDS011;69712;42.142;24.766;2023-11-19T11:17:40;6.90;;;4.80;;
80233;SDS011;69712;42.142;24.766;2023-11-19T11:20:08;5.22;;;3.95;;
80233;SDS011;69712;42.142;24.766;2023-11-19T11:22:39;4.35;;;3.30;;
80233;SDS011;69712;42.142;24.766;2023-11-19T11:28:31;4.35;;;3.30;;
80233;SDS011;69712;42.142;24.766;2023-11-19T11:31:23;5.13;;;3.40;;
80233;SDS011;69712;42.142;24.766;2023-11-19T11:36:34;6.78;;;3.78;;
80233;SDS011;69712;42.142;24.766;2023-11-19T11:39:21;4.25;;;3.40;;
80233;SDS011;69712;42.142;24.766;2023-11-19T11:42:36;4.05;;;3.65;;
80233;SDS011;69712;42.142;24.766;2023-11-19T11:50:09;4.28;;;3.83;;
80233;SDS011;69712;42.142;24.766;2023-11-19T11:53:21;4.00;;;3.55;;
80233;SDS011;69712;42.142;24.766;2023-11-19T11:58:17;6.15;;;3.28;;
80233;SDS011;69712;42.142;24.766;2023-11-19T12:00:46;3.60;;;3.10;;
80233;SDS011;69712;42.142;24.766;2023-11-19T12:03:13;4.25;;;3.85;;
80233;SDS011;69712;42.142;24.766;2023-11-19T12:05:43;4.50;;;3.00;;
80233;SDS011;69712;42.142;24.766;2023-11-19T12:08:10;3.40;;;3.10;;
80233;SDS011;69712;42.142;24.766;2023-11-19T12:10:46;7.75;;;5.75;;
80233;SDS011;69712;42.142;24.766;2023-11-19T12:13:15;5.30;;;3.60;;
80233;SDS011;69712;42.142;24.766;2023-11-19T12:16:06;7.63;;;4.53;;
80233;SDS011;69712;42.142;24.766;2023-11-19T12:18:32;5.82;;;4.50;;
80233;SDS011;69712;42.142;24.766;2023-11-19T12:20:59;6.13;;;4.13;;
80233;SDS011;69712;42.142;24.766;2023-11-19T12:23:31;8.07;;;5.45;;
80233;SDS011;69712;42.142;24.766;2023-11-19T12:25:57;5.10;;;4.40;;
80233;SDS011;69712;42.142;24.766;2023-11-19T12:28:23;4.60;;;3.88;;
80233;SDS011;69712;42.142;24.766;2023-11-19T12:30:51;5.10;;;4.10;;
80233;SDS011;69712;42.142;24.766;2023-11-19T12:33:18;5.18;;;3.90;;
80233;SDS011;69712;42.142;24.766;2023-11-19T12:35:47;7.68;;;4.00;;
80233;SDS011;69712;42.142;24.766;2023-11-19T12:41:07;4.80;;;4.25;;
80233;SDS011;69712;42.142;24.766;2023-11-19T12:43:38;4.78;;;4.22;;
80233;SDS011;69712;42.142;24.766;2023-11-19T12:46:20;6.47;;;4.50;;
80233;SDS011;69712;42.142;24.766;2023-11-19T12:48:50;6.15;;;4.38;;
80233;SDS011;69712;42.142;24.766;2023-11-19T12:51:16;6.85;;;5.40;;
80233;SDS011;69712;42.142;24.766;2023-11-19T12:53:52;5.75;;;4.72;;
80233;SDS011;69712;42.142;24.766;2023-11-19T12:56:23;5.30;;;4.20;;
80233;SDS011;69712;42.142;24.766;2023-11-19T12:58:49;5.30;;;4.47;;
80233;SDS011;69712;42.142;24.766;2023-11-19T13:01:19;5.28;;;4.50;;
80233;SDS011;69712;42.142;24.766;2023-11-19T13:03:45;5.20;;;4.50;;
80233;SDS011;69712;42.142;24.766;2023-11-19T13:06:13;6.85;;;4.68;;
80233;SDS011;69712;42.142;24.766;2023-11-19T13:11:06;6.30;;;4.70;;
80233;SDS011;69712;42.142;24.766;2023-11-19T13:13:33;6.15;;;4.63;;
80233;SDS011;69712;42.142;24.766;2023-11-19T13:16:18;5.35;;;4.32;;
80233;SDS011;69712;42.142;24.766;2023-11-19T13:18:44;6.07;;;4.72;;
80233;SDS011;69712;42.142;24.766;2023-11-19T13:21:10;6.30;;;4.63;;
80233;SDS011;69712;42.142;24.766;2023-11-19T13:23:35;5.60;;;4.72;;
80233;SDS011;69712;42.142;24.766;2023-11-19T13:26:01;5.32;;;4.20;;
80233;SDS011;69712;42.142;24.766;2023-11-19T13:28:28;5.00;;;4.50;;
80233;SDS011;69712;42.142;24.766;2023-11-19T13:30:54;4.97;;;4.35;;
80233;SDS011;69712;42.142;24.766;2023-11-19T13:33:20;4.65;;;4.13;;
80233;SDS011;69712;42.142;24.766;2023-11-19T13:35:46;6.50;;;4.72;;
80233;SDS011;69712;42.142;24.766;2023-11-19T13:38:11;5.15;;;4.45;;
80233;SDS011;69712;42.142;24.766;2023-11-19T13:40:37;4.90;;;4.40;;
80233;SDS011;69712;42.142;24.766;2023-11-19T13:43:04;7.70;;;4.70;;
80233;SDS011;69712;42.142;24.766;2023-11-19T13:45:30;5.88;;;4.47;;
80233;SDS011;69712;42.142;24.766;2023-11-19T13:47:55;5.28;;;4.00;;
80233;SDS011;69712;42.142;24.766;2023-11-19T13:50:21;5.90;;;4.50;;
80233;SDS011;69712;42.142;24.766;2023-11-19T13:52:48;6.10;;;4.35;;
80233;SDS011;69712;42.142;24.766;2023-11-19T13:55:14;7.68;;;4.70;;
80233;SDS011;69712;42.142;24.766;2023-11-19T13:57:41;5.57;;;4.57;;
80233;SDS011;69712;42.142;24.766;2023-11-19T14:00:08;5.90;;;4.40;;
80233;SDS011;69712;42.142;24.766;2023-11-19T14:02:41;5.93;;;4.75;;
80233;SDS011;69712;42.142;24.766;2023-11-19T14:05:08;7.18;;;5.00;;
80233;SDS011;69712;42.142;24.766;2023-11-19T14:07:36;10.80;;;4.75;;
80233;SDS011;69712;42.142;24.766;2023-11-19T14:10:03;6.18;;;4.97;;
80233;SDS011;69712;42.142;24.766;2023-11-19T14:12:30;5.85;;;4.97;;
80233;SDS011;69712;42.142;24.766;2023-11-19T14:14:57;7.15;;;5.00;;
80233;SDS011;69712;42.142;24.766;2023-11-19T14:17:23;7.75;;;5.40;;
80233;SDS011;69712;42.142;24.766;2023-11-19T14:19:50;8.02;;;5.55;;
80233;SDS011;69712;42.142;24.766;2023-11-19T14:22:16;7.07;;;5.07;;
80233;SDS011;69712;42.142;24.766;2023-11-19T14:24:41;5.90;;;5.03;;
80233;SDS011;69712;42.142;24.766;2023-11-19T14:27:08;7.63;;;5.22;;
80233;SDS011;69712;42.142;24.766;2023-11-19T14:29:35;6.82;;;5.35;;
80233;SDS011;69712;42.142;24.766;2023-11-19T14:32:01;7.22;;;5.07;;
80233;SDS011;69712;42.142;24.766;2023-11-19T14:34:28;7.22;;;5.38;;
80233;SDS011;69712;42.142;24.766;2023-11-19T14:36:57;7.45;;;5.30;;
80233;SDS011;69712;42.142;24.766;2023-11-19T14:39:24;7.72;;;5.00;;
80233;SDS011;69712;42.142;24.766;2023-11-19T14:41:50;8.48;;;5.10;;
80233;SDS011;69712;42.142;24.766;2023-11-19T14:44:17;7.20;;;4.95;;
80233;SDS011;69712;42.142;24.766;2023-11-19T14:46:44;6.18;;;4.70;;
80233;SDS011;69712;42.142;24.766;2023-11-19T14:49:10;7.13;;;4.70;;
80233;SDS011;69712;42.142;24.766;2023-11-19T14:51:39;8.73;;;5.72;;
80233;SDS011;69712;42.142;24.766;2023-11-19T14:54:05;5.75;;;4.95;;
80233;SDS011;69712;42.142;24.766;2023-11-19T14:56:31;5.68;;;4.65;;